createdAt,value
2022-12-20T00:01:22.351Z,8.32
2022-12-20T00:03:57.080Z,7.43
2022-12-20T00:06:30.511Z,7.55
2022-12-20T00:09:05.072Z,7.47
2022-12-20T00:11:41.075Z,8.07
2022-12-20T00:14:13.862Z,7.30
2022-12-20T00:16:47.978Z,7.80
2022-12-20T00:19:20.859Z,8.02
2022-12-20T00:21:53.884Z,7.85
2022-12-20T00:27:01.716Z,7.95
2022-12-20T00:29:35.922Z,7.10
2022-12-20T00:32:10.286Z,7.95
2022-12-20T00:34:43.308Z,7.85
2022-12-20T00:39:50.892Z,8.05
2022-12-20T00:44:56.989Z,8.13
2022-12-20T00:50:04.144Z,7.78
2022-12-20T00:55:13.175Z,8.40
2022-12-20T00:57:48.343Z,9.02
2022-12-20T01:00:22.422Z,7.55
2022-12-20T01:02:56.773Z,8.07
2022-12-20T01:05:29.805Z,9.10
2022-12-20T01:08:02.844Z,7.25
2022-12-20T01:10:35.979Z,6.80
2022-12-20T01:13:09.098Z,7.68
2022-12-20T01:18:16.626Z,8.57
2022-12-20T01:20:50.458Z,8.00
2022-12-20T01:25:56.163Z,6.05
2022-12-20T01:31:02.368Z,7.25
2022-12-20T01:36:13.564Z,7.20
2022-12-20T01:38:47.047Z,6.95
2022-12-20T01:41:21.990Z,6.60
2022-12-20T01:43:57.612Z,7.00
2022-12-20T01:46:32.636Z,6.75
2022-12-20T01:49:15.707Z,7.20
2022-12-20T01:51:53.270Z,6.75
2022-12-20T01:54:31.875Z,6.60
2022-12-20T01:57:07.772Z,6.35
2022-12-20T01:59:50.601Z,7.25
2022-12-20T02:02:24.718Z,6.00
2022-12-20T02:04:59.328Z,6.18
2022-12-20T02:07:35.147Z,6.68
2022-12-20T02:10:11.256Z,6.60
2022-12-20T02:12:46.036Z,6.93
2022-12-20T02:15:39.006Z,7.32
2022-12-20T02:18:23.312Z,6.78
2022-12-20T02:21:25.272Z,6.97
2022-12-20T02:24:49.374Z,7.35
2022-12-20T02:27:50.103Z,6.82
2022-12-20T02:30:27.846Z,6.43
2022-12-20T02:33:03.790Z,7.53
2022-12-20T02:35:40.357Z,6.22
2022-12-20T02:38:31.253Z,7.05
2022-12-20T02:41:10.936Z,9.02
2022-12-20T02:44:04.005Z,7.22
2022-12-20T02:46:39.637Z,6.13
2022-12-20T02:49:16.617Z,7.30
2022-12-20T02:52:04.517Z,7.82
2022-12-20T02:54:38.787Z,7.78
2022-12-20T02:57:17.774Z,7.65
2022-12-20T02:59:59.120Z,6.32
2022-12-20T03:02:50.409Z,7.47
2022-12-20T03:05:26.389Z,7.63
2022-12-20T03:08:00.783Z,8.27
2022-12-20T03:10:33.809Z,6.95
2022-12-20T03:13:06.856Z,7.75
2022-12-20T03:15:41.334Z,6.68
2022-12-20T03:18:15.663Z,7.22
2022-12-20T03:20:48.476Z,6.80
2022-12-20T03:23:22.218Z,7.72
2022-12-20T03:25:55.496Z,6.95
2022-12-20T03:28:55.051Z,7.80
2022-12-20T03:31:32.473Z,7.05
2022-12-20T03:34:07.519Z,7.25
2022-12-20T03:36:41.151Z,7.45
2022-12-20T03:39:13.934Z,6.13
2022-12-20T03:41:47.270Z,7.95
2022-12-20T03:44:25.103Z,6.65
2022-12-20T03:46:58.636Z,6.60
2022-12-20T03:49:33.042Z,6.07
2022-12-20T03:52:06.641Z,6.68
2022-12-20T03:54:39.699Z,6.68
2022-12-20T03:57:23.309Z,6.63
2022-12-20T04:00:01.270Z,6.50
2022-12-20T04:02:38.472Z,6.72
2022-12-20T04:05:13.533Z,6.55
2022-12-20T04:07:46.323Z,7.30
2022-12-20T04:10:19.297Z,7.13
2022-12-20T04:12:52.954Z,7.13
2022-12-20T04:15:26.150Z,7.05
2022-12-20T04:18:00.136Z,7.43
2022-12-20T04:20:34.979Z,7.57
2022-12-20T04:23:19.658Z,7.80
2022-12-20T04:25:57.021Z,7.35
2022-12-20T04:28:30.527Z,7.50
2022-12-20T04:31:04.251Z,8.60
2022-12-20T04:33:41.619Z,7.53
2022-12-20T04:36:18.716Z,8.07
2022-12-20T04:38:51.671Z,8.57
2022-12-20T04:44:03.177Z,7.53
2022-12-20T04:46:42.513Z,8.45
2022-12-20T04:49:19.529Z,8.48
2022-12-20T04:51:55.119Z,7.93
2022-12-20T04:54:27.713Z,8.50
2022-12-20T04:57:05.688Z,7.90
2022-12-20T04:59:38.904Z,7.47
2022-12-20T05:04:58.173Z,8.52
2022-12-20T05:07:32.699Z,7.00
2022-12-20T05:10:06.422Z,7.10
2022-12-20T05:12:39.328Z,8.25
2022-12-20T05:15:14.459Z,7.28
2022-12-20T05:17:48.774Z,8.20
2022-12-20T05:20:21.889Z,7.38
2022-12-20T05:26:07.777Z,7.00
2022-12-20T05:28:41.058Z,5.53
2022-12-20T05:31:14.071Z,6.80
2022-12-20T05:36:21.762Z,6.78
2022-12-20T05:39:03.397Z,7.63
2022-12-20T05:44:12.353Z,6.80
2022-12-20T05:46:49.710Z,6.07
2022-12-20T05:49:27.897Z,6.85
2022-12-20T05:52:02.800Z,6.55
2022-12-20T05:54:37.422Z,7.22
2022-12-20T05:57:22.689Z,6.18
2022-12-20T05:59:55.981Z,7.22
2022-12-20T06:02:37.136Z,7.20
2022-12-20T06:05:10.923Z,6.53
2022-12-20T06:07:45.193Z,6.38
2022-12-20T06:10:21.749Z,5.40
2022-12-20T06:13:02.261Z,6.35
2022-12-20T06:15:39.581Z,5.60
2022-12-20T06:18:12.801Z,6.50
2022-12-20T06:20:53.499Z,6.72
2022-12-20T06:26:12.564Z,5.03
2022-12-20T06:28:54.740Z,5.80
2022-12-20T06:31:34.908Z,5.93
2022-12-20T06:34:09.249Z,6.18
2022-12-20T06:36:46.028Z,6.03
2022-12-20T06:39:29.589Z,6.00
2022-12-20T06:42:09.653Z,6.82
2022-12-20T06:44:45.013Z,5.50
2022-12-20T06:47:18.470Z,6.10
2022-12-20T06:49:51.666Z,5.53
2022-12-20T06:52:28.151Z,5.95
2022-12-20T06:55:01.455Z,5.43
2022-12-20T06:57:37.657Z,5.63
2022-12-20T07:00:12.816Z,5.07
2022-12-20T07:02:45.856Z,6.32
2022-12-20T07:05:19.151Z,5.63
2022-12-20T07:07:51.915Z,5.30
2022-12-20T07:10:24.696Z,5.53
2022-12-20T07:12:58.920Z,5.32
2022-12-20T07:15:31.649Z,5.38
2022-12-20T07:18:06.851Z,5.55
2022-12-20T07:20:40.483Z,4.60
2022-12-20T07:23:13.265Z,5.03
2022-12-20T07:25:54.537Z,5.47
2022-12-20T07:28:29.343Z,5.65
2022-12-20T07:31:04.439Z,5.32
2022-12-20T07:33:38.867Z,5.88
2022-12-20T07:36:16.115Z,5.70
2022-12-20T07:38:52.670Z,5.22
2022-12-20T07:41:31.333Z,5.00
2022-12-20T07:44:19.637Z,5.40
2022-12-20T07:46:58.749Z,5.28
2022-12-20T07:49:35.334Z,4.38
2022-12-20T07:52:13.639Z,5.00
2022-12-20T07:54:52.809Z,5.18
2022-12-20T07:57:31.917Z,5.25
2022-12-20T08:00:08.025Z,5.10
2022-12-20T08:02:51.311Z,4.82
2022-12-20T08:05:26.153Z,5.07
2022-12-20T08:08:04.865Z,5.32
2022-12-20T08:10:39.204Z,4.97
2022-12-20T08:13:12.396Z,4.72
2022-12-20T08:15:46.866Z,4.63
2022-12-20T08:18:21.136Z,4.97
2022-12-20T08:20:56.642Z,5.57
2022-12-20T08:23:35.815Z,4.78
2022-12-20T08:26:09.681Z,5.90
2022-12-20T08:28:42.829Z,4.85
2022-12-20T08:31:17.423Z,5.50
2022-12-20T08:33:51.033Z,4.65
2022-12-20T08:36:24.636Z,4.88
2022-12-20T08:38:57.935Z,5.00
2022-12-20T08:41:32.119Z,4.30
2022-12-20T08:44:05.472Z,4.30
2022-12-20T08:46:39.966Z,6.10
2022-12-20T08:49:13.071Z,4.35
2022-12-20T08:51:46.090Z,4.50
2022-12-20T08:56:52.598Z,4.38
2022-12-20T08:59:26.277Z,5.90
2022-12-20T09:02:02.033Z,5.65
2022-12-20T09:04:35.149Z,4.80
2022-12-20T09:07:08.306Z,5.30
2022-12-20T09:09:41.565Z,5.00
2022-12-20T09:12:16.148Z,5.53
2022-12-20T09:14:53.100Z,4.93
2022-12-20T09:17:30.005Z,5.43
2022-12-20T09:20:02.937Z,4.53
2022-12-20T09:22:37.941Z,4.70
2022-12-20T09:25:23.326Z,4.95
2022-12-20T09:28:07.886Z,5.13
2022-12-20T09:30:41.313Z,5.03
2022-12-20T09:33:16.466Z,5.45
2022-12-20T09:35:49.421Z,5.05
2022-12-20T09:38:22.565Z,4.63
2022-12-20T09:40:58.053Z,5.22
2022-12-20T09:43:31.363Z,4.63
2022-12-20T09:46:05.014Z,5.45
2022-12-20T09:48:40.950Z,4.90
2022-12-20T09:51:43.094Z,4.68
2022-12-20T09:54:27.147Z,5.43
2022-12-20T09:57:10.916Z,5.32
2022-12-20T09:59:49.862Z,4.38
2022-12-20T10:05:27.206Z,5.60
2022-12-20T10:08:11.594Z,5.03
2022-12-20T10:10:57.779Z,5.43
2022-12-20T10:13:43.685Z,4.65
2022-12-20T10:16:34.399Z,4.97
2022-12-20T10:19:22.622Z,5.20
2022-12-20T10:22:15.717Z,4.47
2022-12-20T10:25:01.632Z,4.93
2022-12-20T10:27:38.832Z,4.95
2022-12-20T10:30:15.893Z,4.43
2022-12-20T10:32:53.166Z,5.30
2022-12-20T10:35:32.152Z,5.22
2022-12-20T10:38:12.655Z,4.85
2022-12-20T10:44:01.822Z,6.00
2022-12-20T10:46:42.132Z,4.90
2022-12-20T10:49:31.627Z,5.57
2022-12-20T10:52:16.982Z,5.78
2022-12-20T10:54:51.123Z,5.45
2022-12-20T10:57:28.345Z,5.18
2022-12-20T11:00:06.139Z,7.32
2022-12-20T11:02:44.734Z,5.00
2022-12-20T11:05:25.903Z,6.15
2022-12-20T11:08:34.635Z,5.78
2022-12-20T11:11:15.149Z,5.95
2022-12-20T11:13:50.025Z,5.65
2022-12-20T11:16:37.925Z,5.22
2022-12-20T11:19:43.802Z,6.05
2022-12-20T11:22:32.431Z,5.80
2022-12-20T11:25:21.307Z,5.70
2022-12-20T11:28:11.904Z,5.68
2022-12-20T11:30:55.306Z,5.82
2022-12-20T11:33:42.515Z,6.00
2022-12-20T11:36:26.470Z,5.50
2022-12-20T11:39:08.212Z,6.40
2022-12-20T11:41:47.835Z,6.00
2022-12-20T11:44:30.683Z,6.10
2022-12-20T11:47:26.973Z,6.15
2022-12-20T11:50:13.176Z,7.15
2022-12-20T11:52:52.074Z,5.78
2022-12-20T11:55:29.882Z,5.95
2022-12-20T11:58:18.578Z,6.32
2022-12-20T12:00:58.443Z,6.20
2022-12-20T12:03:35.169Z,6.32
2022-12-20T12:06:13.185Z,6.03
2022-12-20T12:08:50.090Z,6.10
2022-12-20T12:14:31.236Z,6.72
2022-12-20T12:17:14.230Z,7.72
2022-12-20T12:19:52.021Z,7.70
2022-12-20T12:22:31.706Z,7.88
2022-12-20T12:25:11.400Z,7.40
2022-12-20T12:27:44.409Z,7.75
2022-12-20T12:32:58.033Z,7.53
2022-12-20T12:36:05.214Z,7.75
2022-12-20T12:39:02.080Z,7.55
2022-12-20T12:41:53.560Z,9.00
2022-12-20T12:44:43.495Z,8.80
2022-12-20T12:47:25.835Z,7.38
2022-12-20T12:50:00.096Z,6.07
2022-12-20T12:52:52.872Z,7.65
2022-12-20T12:55:43.591Z,8.10
2022-12-20T12:58:46.600Z,8.43
2022-12-20T13:01:49.681Z,9.07
2022-12-20T13:04:29.053Z,8.45
2022-12-20T13:07:24.994Z,8.00
2022-12-20T13:09:57.735Z,8.20
2022-12-20T13:12:58.841Z,8.02
2022-12-20T13:16:06.445Z,9.32
2022-12-20T13:18:39.471Z,8.70
2022-12-20T13:24:37.922Z,7.47
2022-12-20T13:27:36.560Z,8.30
2022-12-20T13:30:28.736Z,8.57
2022-12-20T13:33:39.093Z,8.63
2022-12-20T13:36:32.684Z,9.98
2022-12-20T13:39:35.714Z,8.82
2022-12-20T13:42:24.929Z,8.85
2022-12-20T13:44:58.245Z,8.85
2022-12-20T13:47:39.693Z,9.48
2022-12-20T13:50:35.621Z,9.93
2022-12-20T13:53:18.225Z,11.27
2022-12-20T13:55:52.561Z,10.25
2022-12-20T13:58:28.747Z,11.80
2022-12-20T14:01:07.098Z,9.88
2022-12-20T14:03:42.903Z,11.93
2022-12-20T14:06:22.914Z,10.95
2022-12-20T14:11:33.527Z,13.43
2022-12-20T14:14:13.954Z,13.20
2022-12-20T14:16:46.847Z,15.32
2022-12-20T14:21:53.296Z,16.17
2022-12-20T14:24:28.879Z,17.08
2022-12-20T14:27:03.210Z,17.75
2022-12-20T14:29:36.262Z,19.10
2022-12-20T14:32:19.675Z,18.08
2022-12-20T14:34:55.350Z,16.58
2022-12-20T14:37:31.527Z,15.85
2022-12-20T14:40:18.066Z,15.80
2022-12-20T14:42:52.868Z,15.77
2022-12-20T14:45:28.858Z,16.55
2022-12-20T14:48:09.425Z,16.35
2022-12-20T14:50:54.217Z,15.07
2022-12-20T14:53:29.895Z,17.92
2022-12-20T14:56:06.349Z,18.15
2022-12-20T14:58:44.045Z,15.10
2022-12-20T15:01:22.209Z,15.38
2022-12-20T15:03:59.032Z,17.20
2022-12-20T15:06:39.478Z,14.38
2022-12-20T15:09:13.313Z,15.25
2022-12-20T15:11:48.152Z,14.88
2022-12-20T15:14:38.061Z,16.48
2022-12-20T15:17:13.393Z,15.52
2022-12-20T15:19:49.687Z,13.32
2022-12-20T15:22:26.000Z,14.65
2022-12-20T15:24:59.730Z,14.48
2022-12-20T15:27:37.174Z,15.73
2022-12-20T15:30:18.736Z,15.43
2022-12-20T15:32:55.623Z,15.68
2022-12-20T15:35:29.594Z,15.95
2022-12-20T15:38:02.625Z,17.73
2022-12-20T15:43:14.470Z,17.58
2022-12-20T15:45:52.021Z,19.13
2022-12-20T15:48:25.064Z,18.02
2022-12-20T15:53:36.118Z,21.73
2022-12-20T15:56:27.257Z,18.38
2022-12-20T15:59:12.604Z,17.52
2022-12-20T16:02:00.751Z,17.00
2022-12-20T16:04:34.325Z,17.85
2022-12-20T16:07:12.539Z,17.73
2022-12-20T16:09:47.318Z,19.63
2022-12-20T16:12:25.308Z,16.90
2022-12-20T16:15:01.267Z,18.75
2022-12-20T16:17:36.387Z,18.77
2022-12-20T16:20:14.732Z,17.20
2022-12-20T16:22:48.415Z,17.33
2022-12-20T16:25:31.115Z,18.42
2022-12-20T16:28:04.969Z,16.30
2022-12-20T16:30:38.516Z,16.90
2022-12-20T16:33:21.252Z,16.83
2022-12-20T16:36:05.744Z,16.88
2022-12-20T16:38:39.231Z,15.18
2022-12-20T16:41:18.432Z,14.73
2022-12-20T16:43:55.597Z,15.30
2022-12-20T16:46:32.685Z,17.27
2022-12-20T16:49:07.413Z,15.15
2022-12-20T16:51:45.667Z,15.73
2022-12-20T16:54:21.379Z,15.98
2022-12-20T16:56:56.815Z,17.23
2022-12-20T16:59:30.104Z,16.02
2022-12-20T17:02:15.273Z,17.33
2022-12-20T17:04:55.045Z,15.88
2022-12-20T17:07:30.457Z,16.65
2022-12-20T17:10:03.886Z,16.10
2022-12-20T17:12:36.961Z,16.75
2022-12-20T17:17:47.948Z,17.30
2022-12-20T17:20:25.040Z,18.38
2022-12-20T17:26:16.938Z,16.20
2022-12-20T17:28:59.187Z,16.92
2022-12-20T17:31:41.376Z,16.33
2022-12-20T17:34:35.450Z,17.50
2022-12-20T17:37:20.584Z,18.92
2022-12-20T17:40:08.764Z,18.73
2022-12-20T17:42:58.154Z,18.60
2022-12-20T17:45:44.611Z,17.40
2022-12-20T17:48:32.128Z,17.23
2022-12-20T17:51:19.357Z,18.58
2022-12-20T17:54:06.357Z,17.80
2022-12-20T17:56:39.704Z,19.20
2022-12-20T17:59:14.187Z,20.48
2022-12-20T18:01:48.266Z,19.73
2022-12-20T18:04:22.570Z,17.98
2022-12-20T18:06:57.400Z,19.48
2022-12-20T18:09:35.420Z,19.05
2022-12-20T18:12:13.780Z,18.52
2022-12-20T18:14:52.451Z,18.95
2022-12-20T18:17:34.640Z,18.10
2022-12-20T18:20:10.397Z,18.45
2022-12-20T18:22:43.396Z,19.52
2022-12-20T18:27:55.396Z,18.23
2022-12-20T18:30:28.904Z,19.23
2022-12-20T18:33:01.905Z,17.58
2022-12-20T18:35:37.739Z,17.60
2022-12-20T18:38:10.852Z,19.77
2022-12-20T18:40:47.262Z,19.45
2022-12-20T18:43:22.249Z,19.27
2022-12-20T18:45:57.992Z,20.65
2022-12-20T18:48:31.095Z,19.00
2022-12-20T18:53:37.899Z,17.63
2022-12-20T18:56:15.677Z,19.40
2022-12-20T18:58:51.798Z,19.48
2022-12-20T19:01:26.860Z,19.38
2022-12-20T19:04:02.697Z,18.27
2022-12-20T19:06:38.918Z,19.90
2022-12-20T19:09:16.223Z,20.20
2022-12-20T19:11:56.643Z,21.05
2022-12-20T19:14:30.809Z,21.15
2022-12-20T19:17:04.395Z,19.88
2022-12-20T19:19:40.448Z,20.60
2022-12-20T19:22:17.483Z,19.80
2022-12-20T19:24:53.567Z,22.00
2022-12-20T19:27:28.162Z,21.13
2022-12-20T19:30:05.250Z,22.05
2022-12-20T19:32:38.805Z,22.70
2022-12-20T19:35:52.965Z,24.02
2022-12-20T19:38:10.672Z,21.83
2022-12-20T19:40:43.810Z,21.60
2022-12-20T19:45:51.059Z,19.65
2022-12-20T19:48:24.361Z,19.95
2022-12-20T19:51:06.617Z,21.92
2022-12-20T19:53:45.719Z,21.42
2022-12-20T19:56:21.484Z,21.13
2022-12-20T19:58:56.429Z,22.10
2022-12-20T20:01:30.431Z,20.60
2022-12-20T20:04:05.261Z,20.48
2022-12-20T20:06:38.307Z,20.45
2022-12-20T20:11:47.687Z,21.40
2022-12-20T20:14:22.837Z,19.40
2022-12-20T20:16:56.020Z,20.05
2022-12-20T20:19:29.313Z,21.23
2022-12-20T20:22:02.563Z,20.90
2022-12-20T20:24:35.755Z,21.17
2022-12-20T20:27:08.748Z,20.92
2022-12-20T20:32:15.982Z,20.40
2022-12-20T20:34:49.715Z,20.70
2022-12-20T20:37:22.664Z,20.48
2022-12-20T20:42:28.296Z,21.27
2022-12-20T20:45:05.565Z,20.10
2022-12-20T20:47:38.417Z,20.38
2022-12-20T20:50:12.006Z,19.15
2022-12-20T20:52:45.138Z,18.40
2022-12-20T20:55:18.215Z,19.33
2022-12-20T21:00:29.282Z,18.52
2022-12-20T21:03:02.510Z,17.67
2022-12-20T21:06:14.166Z,17.33
2022-12-20T21:08:29.280Z,16.38
2022-12-20T21:11:06.390Z,17.45
2022-12-20T21:13:41.417Z,15.70
2022-12-20T21:16:21.059Z,15.90
2022-12-20T21:18:55.248Z,16.60
2022-12-20T21:21:28.579Z,16.27
2022-12-20T21:24:01.774Z,15.88
2022-12-20T21:26:40.562Z,15.27
2022-12-20T21:29:13.868Z,14.63
2022-12-20T21:31:48.328Z,16.05
2022-12-20T21:34:21.717Z,13.15
2022-12-20T21:36:54.736Z,13.95
2022-12-20T21:39:29.891Z,13.25
2022-12-20T21:42:05.184Z,12.95
2022-12-20T21:44:38.353Z,13.48
2022-12-20T21:47:12.960Z,11.48
2022-12-20T21:49:46.199Z,12.07
2022-12-20T21:52:23.247Z,11.77
2022-12-20T21:55:00.544Z,11.23
2022-12-20T21:57:34.394Z,10.10
2022-12-20T22:00:11.209Z,11.25
2022-12-20T22:02:47.160Z,10.98
2022-12-20T22:05:20.516Z,10.77
2022-12-20T22:07:53.739Z,12.02
2022-12-20T22:10:27.852Z,11.55
2022-12-20T22:13:01.390Z,11.18
2022-12-20T22:15:34.892Z,11.88
2022-12-20T22:18:12.712Z,11.02
2022-12-20T22:20:46.531Z,9.25
2022-12-20T22:23:19.594Z,11.13
2022-12-20T22:28:25.657Z,9.50
2022-12-20T22:31:00.645Z,9.50
2022-12-20T22:33:35.813Z,9.57
2022-12-20T22:36:10.139Z,9.77
2022-12-20T22:38:46.677Z,8.93
2022-12-20T22:41:22.465Z,9.38
2022-12-20T22:43:56.096Z,9.07
2022-12-20T22:46:30.294Z,9.18
2022-12-20T22:49:04.839Z,10.18
2022-12-20T22:51:38.081Z,9.10
2022-12-20T22:54:11.160Z,8.68
2022-12-20T22:56:46.574Z,9.13
2022-12-20T22:59:19.661Z,8.73
2022-12-20T23:01:52.706Z,9.75
2022-12-20T23:04:27.349Z,9.52
2022-12-20T23:07:00.269Z,9.38
2022-12-20T23:12:23.939Z,9.82
2022-12-20T23:15:17.131Z,9.63
2022-12-20T23:17:50.051Z,9.73
2022-12-20T23:23:15.172Z,8.93
2022-12-20T23:25:48.539Z,9.55
2022-12-20T23:28:23.662Z,9.20
2022-12-20T23:30:56.766Z,9.60
2022-12-20T23:33:29.688Z,8.70
2022-12-20T23:36:06.256Z,9.32
2022-12-20T23:38:40.100Z,9.40
2022-12-20T23:41:15.600Z,8.75
2022-12-20T23:43:48.336Z,9.65
2022-12-20T23:46:21.907Z,8.82
2022-12-20T23:48:54.990Z,9.65
2022-12-20T23:54:01.890Z,9.23
2022-12-20T23:59:07.448Z,8.60
